sensor_id;sensor_type;location;lat;lon;timestamp;P1;durP1;ratioP1;P2;durP2;ratioP2
1128;SDS011;553;51.038;7.216;2024-03-08T00:00:11;31.40;;;17.80;;
1128;SDS011;553;51.038;7.216;2024-03-08T00:02:41;26.50;;;17.83;;
1128;SDS011;553;51.038;7.216;2024-03-08T00:05:09;28.40;;;17.80;;
1128;SDS011;553;51.038;7.216;2024-03-08T00:07:36;29.17;;;16.90;;
1128;SDS011;553;51.038;7.216;2024-03-08T00:10:03;29.20;;;17.17;;
1128;SDS011;553;51.038;7.216;2024-03-08T00:12:31;24.70;;;16.23;;
1128;SDS011;553;51.038;7.216;2024-03-08T00:14:58;25.33;;;16.23;;
1128;SDS011;553;51.038;7.216;2024-03-08T00:17:25;31.03;;;17.27;;
1128;SDS011;553;51.038;7.216;2024-03-08T00:19:53;26.43;;;17.27;;
1128;SDS011;553;51.038;7.216;2024-03-08T00:22:20;29.77;;;17.77;;
1128;SDS011;553;51.038;7.216;2024-03-08T00:24:48;29.10;;;16.63;;
1128;SDS011;553;51.038;7.216;2024-03-08T00:27:17;28.83;;;16.20;;
1128;SDS011;553;51.038;7.216;2024-03-08T00:29:47;33.90;;;20.07;;
1128;SDS011;553;51.038;7.216;2024-03-08T00:32:14;28.20;;;17.30;;
1128;SDS011;553;51.038;7.216;2024-03-08T00:34:40;31.13;;;17.13;;
1128;SDS011;553;51.038;7.216;2024-03-08T00:37:07;30.97;;;18.37;;
1128;SDS011;553;51.038;7.216;2024-03-08T00:39:34;28.47;;;17.77;;
1128;SDS011;553;51.038;7.216;2024-03-08T00:42:01;29.43;;;16.53;;
1128;SDS011;553;51.038;7.216;2024-03-08T00:44:28;27.03;;;17.50;;
1128;SDS011;553;51.038;7.216;2024-03-08T00:46:55;26.40;;;16.00;;
1128;SDS011;553;51.038;7.216;2024-03-08T00:49:22;28.20;;;17.07;;
1128;SDS011;553;51.038;7.216;2024-03-08T00:51:49;26.37;;;16.50;;
1128;SDS011;553;51.038;7.216;2024-03-08T00:54:16;25.37;;;16.20;;
1128;SDS011;553;51.038;7.216;2024-03-08T00:56:43;31.33;;;17.00;;
1128;SDS011;553;51.038;7.216;2024-03-08T00:59:09;32.43;;;17.63;;
1128;SDS011;553;51.038;7.216;2024-03-08T01:01:36;26.60;;;17.70;;
1128;SDS011;553;51.038;7.216;2024-03-08T01:04:03;33.17;;;17.83;;
1128;SDS011;553;51.038;7.216;2024-03-08T01:06:30;28.60;;;16.33;;
1128;SDS011;553;51.038;7.216;2024-03-08T01:08:57;32.83;;;18.53;;
1128;SDS011;553;51.038;7.216;2024-03-08T01:11:24;26.37;;;17.17;;
1128;SDS011;553;51.038;7.216;2024-03-08T01:13:51;27.10;;;16.53;;
1128;SDS011;553;51.038;7.216;2024-03-08T01:16:20;27.77;;;17.20;;
1128;SDS011;553;51.038;7.216;2024-03-08T01:18:47;29.07;;;17.27;;
1128;SDS011;553;51.038;7.216;2024-03-08T01:21:14;31.77;;;18.60;;
1128;SDS011;553;51.038;7.216;2024-03-08T01:23:41;28.57;;;17.27;;
1128;SDS011;553;51.038;7.216;2024-03-08T01:26:08;32.50;;;19.00;;
1128;SDS011;553;51.038;7.216;2024-03-08T01:28:35;33.23;;;18.70;;
1128;SDS011;553;51.038;7.216;2024-03-08T01:31:02;27.57;;;17.63;;
1128;SDS011;553;51.038;7.216;2024-03-08T01:33:30;31.13;;;19.03;;
1128;SDS011;553;51.038;7.216;2024-03-08T01:35:57;27.97;;;18.47;;
1128;SDS011;553;51.038;7.216;2024-03-08T01:38:24;33.63;;;17.80;;
1128;SDS011;553;51.038;7.216;2024-03-08T01:40:51;32.57;;;18.00;;
1128;SDS011;553;51.038;7.216;2024-03-08T01:43:22;28.80;;;18.20;;
1128;SDS011;553;51.038;7.216;2024-03-08T01:45:57;30.00;;;17.43;;
1128;SDS011;553;51.038;7.216;2024-03-08T01:48:28;29.10;;;17.53;;
1128;SDS011;553;51.038;7.216;2024-03-08T01:50:56;27.47;;;17.43;;
1128;SDS011;553;51.038;7.216;2024-03-08T01:53:24;34.30;;;19.20;;
1128;SDS011;553;51.038;7.216;2024-03-08T01:55:54;29.30;;;18.37;;
1128;SDS011;553;51.038;7.216;2024-03-08T01:58:24;30.10;;;17.97;;
1128;SDS011;553;51.038;7.216;2024-03-08T02:00:54;30.70;;;17.40;;
1128;SDS011;553;51.038;7.216;2024-03-08T02:03:23;33.53;;;17.97;;
1128;SDS011;553;51.038;7.216;2024-03-08T02:05:50;27.50;;;17.33;;
1128;SDS011;553;51.038;7.216;2024-03-08T02:08:21;34.07;;;21.07;;
1128;SDS011;553;51.038;7.216;2024-03-08T02:10:50;30.43;;;19.33;;
1128;SDS011;553;51.038;7.216;2024-03-08T02:13:17;34.97;;;19.77;;
1128;SDS011;553;51.038;7.216;2024-03-08T02:15:55;32.20;;;18.07;;
1128;SDS011;553;51.038;7.216;2024-03-08T02:18:23;30.50;;;18.10;;
1128;SDS011;553;51.038;7.216;2024-03-08T02:20:57;28.47;;;16.57;;
1128;SDS011;553;51.038;7.216;2024-03-08T02:23:26;28.33;;;17.70;;
1128;SDS011;553;51.038;7.216;2024-03-08T02:25:54;37.47;;;19.33;;
1128;SDS011;553;51.038;7.216;2024-03-08T02:28:22;30.10;;;18.97;;
1128;SDS011;553;51.038;7.216;2024-03-08T02:30:51;34.70;;;19.20;;
1128;SDS011;553;51.038;7.216;2024-03-08T02:36:38;29.47;;;18.27;;
1128;SDS011;553;51.038;7.216;2024-03-08T02:39:05;32.73;;;18.53;;
1128;SDS011;553;51.038;7.216;2024-03-08T02:41:32;29.33;;;18.50;;
1128;SDS011;553;51.038;7.216;2024-03-08T02:43:58;31.97;;;18.07;;
1128;SDS011;553;51.038;7.216;2024-03-08T02:46:26;38.40;;;19.50;;
1128;SDS011;553;51.038;7.216;2024-03-08T02:48:53;36.17;;;18.30;;
1128;SDS011;553;51.038;7.216;2024-03-08T02:51:20;31.90;;;18.80;;
1128;SDS011;553;51.038;7.216;2024-03-08T02:53:47;32.73;;;20.10;;
1128;SDS011;553;51.038;7.216;2024-03-08T02:56:15;34.30;;;17.83;;
1128;SDS011;553;51.038;7.216;2024-03-08T02:58:43;34.60;;;18.90;;
1128;SDS011;553;51.038;7.216;2024-03-08T03:01:15;33.10;;;18.33;;
1128;SDS011;553;51.038;7.216;2024-03-08T03:03:42;31.83;;;16.80;;
1128;SDS011;553;51.038;7.216;2024-03-08T03:06:09;31.47;;;19.57;;
1128;SDS011;553;51.038;7.216;2024-03-08T03:08:36;33.43;;;20.23;;
1128;SDS011;553;51.038;7.216;2024-03-08T03:11:03;31.33;;;17.47;;
1128;SDS011;553;51.038;7.216;2024-03-08T03:13:29;34.10;;;18.50;;
1128;SDS011;553;51.038;7.216;2024-03-08T03:15:56;26.90;;;17.50;;
1128;SDS011;553;51.038;7.216;2024-03-08T03:18:24;30.20;;;18.77;;
1128;SDS011;553;51.038;7.216;2024-03-08T03:20:52;29.50;;;17.40;;
1128;SDS011;553;51.038;7.216;2024-03-08T03:23:19;38.63;;;19.77;;
1128;SDS011;553;51.038;7.216;2024-03-08T03:25:47;35.07;;;19.63;;
1128;SDS011;553;51.038;7.216;2024-03-08T03:28:13;36.30;;;20.37;;
1128;SDS011;553;51.038;7.216;2024-03-08T03:30:46;33.87;;;19.03;;
1128;SDS011;553;51.038;7.216;2024-03-08T03:33:13;33.70;;;19.30;;
1128;SDS011;553;51.038;7.216;2024-03-08T03:35:42;33.60;;;19.17;;
1128;SDS011;553;51.038;7.216;2024-03-08T03:38:10;32.00;;;18.77;;
1128;SDS011;553;51.038;7.216;2024-03-08T03:40:39;30.33;;;17.53;;
1128;SDS011;553;51.038;7.216;2024-03-08T03:43:06;33.33;;;19.10;;
1128;SDS011;553;51.038;7.216;2024-03-08T03:45:34;30.50;;;17.77;;
1128;SDS011;553;51.038;7.216;2024-03-08T03:48:03;30.73;;;16.83;;
1128;SDS011;553;51.038;7.216;2024-03-08T03:50:33;38.73;;;18.03;;
1128;SDS011;553;51.038;7.216;2024-03-08T03:53:03;30.53;;;19.33;;
1128;SDS011;553;51.038;7.216;2024-03-08T03:55:31;34.20;;;19.10;;
1128;SDS011;553;51.038;7.216;2024-03-08T03:57:59;29.10;;;17.30;;
1128;SDS011;553;51.038;7.216;2024-03-08T04:00:27;36.43;;;20.00;;
1128;SDS011;553;51.038;7.216;2024-03-08T04:02:54;36.30;;;18.57;;
1128;SDS011;553;51.038;7.216;2024-03-08T04:05:21;30.07;;;17.87;;
1128;SDS011;553;51.038;7.216;2024-03-08T04:07:48;34.20;;;19.13;;
1128;SDS011;553;51.038;7.216;2024-03-08T04:10:14;32.67;;;18.10;;
1128;SDS011;553;51.038;7.216;2024-03-08T04:12:41;31.03;;;18.63;;
1128;SDS011;553;51.038;7.216;2024-03-08T04:15:08;31.17;;;17.10;;
1128;SDS011;553;51.038;7.216;2024-03-08T04:17:37;33.27;;;19.43;;
1128;SDS011;553;51.038;7.216;2024-03-08T04:20:04;32.03;;;16.37;;
1128;SDS011;553;51.038;7.216;2024-03-08T04:22:36;30.60;;;17.57;;
1128;SDS011;553;51.038;7.216;2024-03-08T04:25:03;32.80;;;18.60;;
1128;SDS011;553;51.038;7.216;2024-03-08T04:27:31;32.97;;;18.63;;
1128;SDS011;553;51.038;7.216;2024-03-08T04:29:59;31.13;;;18.27;;
1128;SDS011;553;51.038;7.216;2024-03-08T04:32:26;32.93;;;18.57;;
1128;SDS011;553;51.038;7.216;2024-03-08T04:34:54;33.87;;;18.93;;
1128;SDS011;553;51.038;7.216;2024-03-08T04:37:21;29.27;;;18.80;;
1128;SDS011;553;51.038;7.216;2024-03-08T04:39:48;32.37;;;19.30;;
1128;SDS011;553;51.038;7.216;2024-03-08T04:42:15;37.17;;;20.03;;
1128;SDS011;553;51.038;7.216;2024-03-08T04:44:44;33.80;;;16.67;;
1128;SDS011;553;51.038;7.216;2024-03-08T04:47:11;34.90;;;19.00;;
1128;SDS011;553;51.038;7.216;2024-03-08T04:49:38;33.77;;;17.50;;
1128;SDS011;553;51.038;7.216;2024-03-08T04:52:05;35.83;;;18.13;;
1128;SDS011;553;51.038;7.216;2024-03-08T04:54:33;33.50;;;18.47;;
1128;SDS011;553;51.038;7.216;2024-03-08T04:57:01;33.80;;;18.60;;
1128;SDS011;553;51.038;7.216;2024-03-08T04:59:32;35.10;;;19.20;;
1128;SDS011;553;51.038;7.216;2024-03-08T05:01:59;35.20;;;19.00;;
1128;SDS011;553;51.038;7.216;2024-03-08T05:04:25;34.60;;;18.40;;
1128;SDS011;553;51.038;7.216;2024-03-08T05:06:52;33.67;;;20.00;;
1128;SDS011;553;51.038;7.216;2024-03-08T05:09:19;32.80;;;19.67;;
1128;SDS011;553;51.038;7.216;2024-03-08T05:11:46;30.07;;;17.20;;
1128;SDS011;553;51.038;7.216;2024-03-08T05:14:14;37.93;;;20.57;;
1128;SDS011;553;51.038;7.216;2024-03-08T05:16:46;32.70;;;19.63;;
1128;SDS011;553;51.038;7.216;2024-03-08T05:19:16;39.37;;;20.20;;
1128;SDS011;553;51.038;7.216;2024-03-08T05:21:47;38.43;;;20.03;;
1128;SDS011;553;51.038;7.216;2024-03-08T05:24:15;34.73;;;19.47;;
1128;SDS011;553;51.038;7.216;2024-03-08T05:26:43;35.03;;;20.10;;
1128;SDS011;553;51.038;7.216;2024-03-08T05:29:11;35.20;;;18.50;;
1128;SDS011;553;51.038;7.216;2024-03-08T05:31:46;36.97;;;20.43;;
1128;SDS011;553;51.038;7.216;2024-03-08T05:34:13;33.90;;;19.10;;
1128;SDS011;553;51.038;7.216;2024-03-08T05:36:41;36.23;;;19.63;;
1128;SDS011;553;51.038;7.216;2024-03-08T05:39:12;36.97;;;17.97;;
1128;SDS011;553;51.038;7.216;2024-03-08T05:41:40;35.70;;;19.57;;
1128;SDS011;553;51.038;7.216;2024-03-08T05:44:08;35.87;;;20.10;;
1128;SDS011;553;51.038;7.216;2024-03-08T05:46:35;35.03;;;20.13;;
1128;SDS011;553;51.038;7.216;2024-03-08T05:49:03;35.07;;;20.87;;
1128;SDS011;553;51.038;7.216;2024-03-08T05:51:33;37.40;;;21.47;;
1128;SDS011;553;51.038;7.216;2024-03-08T05:54:03;38.20;;;21.13;;
1128;SDS011;553;51.038;7.216;2024-03-08T05:56:32;34.17;;;18.73;;
1128;SDS011;553;51.038;7.216;2024-03-08T05:58:59;32.53;;;18.50;;
1128;SDS011;553;51.038;7.216;2024-03-08T06:01:27;34.40;;;19.73;;
1128;SDS011;553;51.038;7.216;2024-03-08T06:03:54;35.63;;;19.13;;
1128;SDS011;553;51.038;7.216;2024-03-08T06:06:25;37.63;;;21.27;;
1128;SDS011;553;51.038;7.216;2024-03-08T06:08:52;37.33;;;20.07;;
1128;SDS011;553;51.038;7.216;2024-03-08T06:11:19;37.63;;;20.03;;
1128;SDS011;553;51.038;7.216;2024-03-08T06:13:47;32.80;;;20.50;;
1128;SDS011;553;51.038;7.216;2024-03-08T06:16:14;33.90;;;17.90;;
1128;SDS011;553;51.038;7.216;2024-03-08T06:18:41;34.83;;;19.80;;
1128;SDS011;553;51.038;7.216;2024-03-08T06:21:09;36.70;;;18.77;;
1128;SDS011;553;51.038;7.216;2024-03-08T06:23:38;37.93;;;19.83;;
1128;SDS011;553;51.038;7.216;2024-03-08T06:26:05;36.63;;;20.17;;
1128;SDS011;553;51.038;7.216;2024-03-08T06:28:32;32.03;;;19.70;;
1128;SDS011;553;51.038;7.216;2024-03-08T06:30:59;36.57;;;18.10;;
1128;SDS011;553;51.038;7.216;2024-03-08T06:33:26;34.13;;;20.70;;
1128;SDS011;553;51.038;7.216;2024-03-08T06:35:54;37.13;;;20.20;;
1128;SDS011;553;51.038;7.216;2024-03-08T06:38:24;39.10;;;21.93;;
1128;SDS011;553;51.038;7.216;2024-03-08T06:40:51;33.53;;;18.90;;
1128;SDS011;553;51.038;7.216;2024-03-08T06:43:19;36.33;;;19.30;;
1128;SDS011;553;51.038;7.216;2024-03-08T06:45:46;39.70;;;21.00;;
1128;SDS011;553;51.038;7.216;2024-03-08T06:48:18;34.47;;;19.23;;
1128;SDS011;553;51.038;7.216;2024-03-08T06:50:46;33.33;;;19.47;;
1128;SDS011;553;51.038;7.216;2024-03-08T06:53:13;38.93;;;20.13;;
1128;SDS011;553;51.038;7.216;2024-03-08T06:55:42;34.50;;;20.30;;
1128;SDS011;553;51.038;7.216;2024-03-08T06:58:10;33.40;;;19.37;;
1128;SDS011;553;51.038;7.216;2024-03-08T07:00:37;34.67;;;19.37;;
1128;SDS011;553;51.038;7.216;2024-03-08T07:03:08;40.03;;;20.50;;
1128;SDS011;553;51.038;7.216;2024-03-08T07:05:38;34.57;;;19.40;;
1128;SDS011;553;51.038;7.216;2024-03-08T07:08:06;37.57;;;18.97;;
1128;SDS011;553;51.038;7.216;2024-03-08T07:10:33;36.70;;;17.57;;
1128;SDS011;553;51.038;7.216;2024-03-08T07:13:01;32.40;;;18.13;;
1128;SDS011;553;51.038;7.216;2024-03-08T07:15:30;37.13;;;19.57;;
1128;SDS011;553;51.038;7.216;2024-03-08T07:17:57;38.43;;;20.33;;
1128;SDS011;553;51.038;7.216;2024-03-08T07:20:26;38.07;;;19.70;;
1128;SDS011;553;51.038;7.216;2024-03-08T07:22:54;33.27;;;19.43;;
1128;SDS011;553;51.038;7.216;2024-03-08T07:25:21;27.87;;;17.60;;
1128;SDS011;553;51.038;7.216;2024-03-08T07:27:49;35.37;;;19.40;;
1128;SDS011;553;51.038;7.216;2024-03-08T07:30:24;35.43;;;19.07;;
1128;SDS011;553;51.038;7.216;2024-03-08T07:33:10;32.47;;;19.10;;
1128;SDS011;553;51.038;7.216;2024-03-08T07:35:41;33.60;;;19.30;;
1128;SDS011;553;51.038;7.216;2024-03-08T07:38:09;32.97;;;20.07;;
1128;SDS011;553;51.038;7.216;2024-03-08T07:40:37;40.83;;;20.93;;
1128;SDS011;553;51.038;7.216;2024-03-08T07:43:10;36.47;;;19.30;;
1128;SDS011;553;51.038;7.216;2024-03-08T07:45:38;36.50;;;20.97;;
1128;SDS011;553;51.038;7.216;2024-03-08T07:48:05;33.47;;;18.70;;
1128;SDS011;553;51.038;7.216;2024-03-08T07:50:40;32.60;;;18.97;;
1128;SDS011;553;51.038;7.216;2024-03-08T07:53:07;33.37;;;19.40;;
1128;SDS011;553;51.038;7.216;2024-03-08T07:55:34;36.97;;;19.90;;
1128;SDS011;553;51.038;7.216;2024-03-08T07:58:02;38.10;;;19.63;;
1128;SDS011;553;51.038;7.216;2024-03-08T08:00:30;34.93;;;19.87;;
1128;SDS011;553;51.038;7.216;2024-03-08T08:03:00;31.73;;;19.47;;
1128;SDS011;553;51.038;7.216;2024-03-08T08:05:27;32.23;;;17.60;;
1128;SDS011;553;51.038;7.216;2024-03-08T08:07:54;32.40;;;18.97;;
1128;SDS011;553;51.038;7.216;2024-03-08T08:10:21;32.10;;;19.20;;
1128;SDS011;553;51.038;7.216;2024-03-08T08:12:49;34.30;;;17.77;;
1128;SDS011;553;51.038;7.216;2024-03-08T08:15:16;31.73;;;18.90;;
1128;SDS011;553;51.038;7.216;2024-03-08T08:17:44;30.53;;;18.93;;
1128;SDS011;553;51.038;7.216;2024-03-08T08:20:11;30.30;;;17.53;;
1128;SDS011;553;51.038;7.216;2024-03-08T08:22:39;31.53;;;17.93;;
1128;SDS011;553;51.038;7.216;2024-03-08T08:25:07;37.80;;;18.93;;
1128;SDS011;553;51.038;7.216;2024-03-08T08:27:34;30.73;;;17.67;;
1128;SDS011;553;51.038;7.216;2024-03-08T08:30:04;32.17;;;17.90;;
1128;SDS011;553;51.038;7.216;2024-03-08T08:32:34;30.03;;;18.43;;
1128;SDS011;553;51.038;7.216;2024-03-08T08:35:03;33.87;;;18.43;;
1128;SDS011;553;51.038;7.216;2024-03-08T08:37:31;32.60;;;18.30;;
1128;SDS011;553;51.038;7.216;2024-03-08T08:39:58;31.73;;;18.33;;
1128;SDS011;553;51.038;7.216;2024-03-08T08:42:31;27.13;;;17.57;;
1128;SDS011;553;51.038;7.216;2024-03-08T08:44:59;32.10;;;18.50;;
1128;SDS011;553;51.038;7.216;2024-03-08T08:47:40;28.60;;;17.90;;
1128;SDS011;553;51.038;7.216;2024-03-08T08:50:09;25.57;;;16.17;;
1128;SDS011;553;51.038;7.216;2024-03-08T08:52:38;29.47;;;17.53;;
1128;SDS011;553;51.038;7.216;2024-03-08T08:55:06;28.47;;;16.33;;
1128;SDS011;553;51.038;7.216;2024-03-08T08:57:34;26.43;;;15.47;;
1128;SDS011;553;51.038;7.216;2024-03-08T09:00:02;27.07;;;14.70;;
1128;SDS011;553;51.038;7.216;2024-03-08T09:02:37;27.73;;;17.43;;
1128;SDS011;553;51.038;7.216;2024-03-08T09:05:04;25.40;;;15.43;;
1128;SDS011;553;51.038;7.216;2024-03-08T09:07:31;24.83;;;15.67;;
1128;SDS011;553;51.038;7.216;2024-03-08T09:09:58;24.10;;;15.50;;
1128;SDS011;553;51.038;7.216;2024-03-08T09:12:33;23.33;;;15.03;;
1128;SDS011;553;51.038;7.216;2024-03-08T09:15:00;29.60;;;15.00;;
1128;SDS011;553;51.038;7.216;2024-03-08T09:17:27;27.00;;;14.07;;
1128;SDS011;553;51.038;7.216;2024-03-08T09:19:54;22.17;;;13.87;;
1128;SDS011;553;51.038;7.216;2024-03-08T09:22:21;23.50;;;15.40;;
1128;SDS011;553;51.038;7.216;2024-03-08T09:24:47;26.83;;;14.80;;
1128;SDS011;553;51.038;7.216;2024-03-08T09:27:15;22.73;;;15.00;;
1128;SDS011;553;51.038;7.216;2024-03-08T09:29:42;22.37;;;15.50;;
1128;SDS011;553;51.038;7.216;2024-03-08T09:32:10;24.60;;;14.40;;
1128;SDS011;553;51.038;7.216;2024-03-08T09:34:38;26.20;;;16.00;;
1128;SDS011;553;51.038;7.216;2024-03-08T09:37:06;23.10;;;14.70;;
1128;SDS011;553;51.038;7.216;2024-03-08T09:39:35;18.33;;;11.53;;
1128;SDS011;553;51.038;7.216;2024-03-08T09:42:02;21.70;;;14.43;;
1128;SDS011;553;51.038;7.216;2024-03-08T09:44:29;19.13;;;13.57;;
1128;SDS011;553;51.038;7.216;2024-03-08T09:46:57;23.90;;;15.07;;
1128;SDS011;553;51.038;7.216;2024-03-08T09:49:25;19.77;;;13.57;;
1128;SDS011;553;51.038;7.216;2024-03-08T09:51:52;24.03;;;14.97;;
1128;SDS011;553;51.038;7.216;2024-03-08T09:54:19;22.07;;;14.17;;
1128;SDS011;553;51.038;7.216;2024-03-08T09:56:51;20.10;;;13.67;;
1128;SDS011;553;51.038;7.216;2024-03-08T09:59:19;16.90;;;12.00;;
1128;SDS011;553;51.038;7.216;2024-03-08T10:01:48;18.97;;;13.00;;
1128;SDS011;553;51.038;7.216;2024-03-08T10:04:16;19.30;;;12.30;;
1128;SDS011;553;51.038;7.216;2024-03-08T10:06:43;18.90;;;11.90;;
1128;SDS011;553;51.038;7.216;2024-03-08T10:09:13;20.30;;;13.10;;
1128;SDS011;553;51.038;7.216;2024-03-08T10:11:40;19.40;;;13.97;;
1128;SDS011;553;51.038;7.216;2024-03-08T10:14:07;19.70;;;12.40;;
1128;SDS011;553;51.038;7.216;2024-03-08T10:16:39;20.07;;;13.10;;
1128;SDS011;553;51.038;7.216;2024-03-08T10:19:06;16.60;;;11.50;;
1128;SDS011;553;51.038;7.216;2024-03-08T10:21:34;17.27;;;11.70;;
1128;SDS011;553;51.038;7.216;2024-03-08T10:24:02;16.03;;;11.40;;
1128;SDS011;553;51.038;7.216;2024-03-08T10:26:30;16.60;;;11.93;;
1128;SDS011;553;51.038;7.216;2024-03-08T10:28:57;17.70;;;12.07;;
1128;SDS011;553;51.038;7.216;2024-03-08T10:31:24;18.67;;;13.33;;
1128;SDS011;553;51.038;7.216;2024-03-08T10:33:52;23.13;;;14.47;;
1128;SDS011;553;51.038;7.216;2024-03-08T10:36:19;16.43;;;10.23;;
1128;SDS011;553;51.038;7.216;2024-03-08T10:38:46;12.73;;;10.00;;
1128;SDS011;553;51.038;7.216;2024-03-08T10:41:14;16.93;;;10.73;;
1128;SDS011;553;51.038;7.216;2024-03-08T10:43:47;15.37;;;9.20;;
1128;SDS011;553;51.038;7.216;2024-03-08T10:46:45;16.53;;;10.77;;
1128;SDS011;553;51.038;7.216;2024-03-08T10:49:32;13.87;;;10.20;;
1128;SDS011;553;51.038;7.216;2024-03-08T10:52:05;14.83;;;9.93;;
1128;SDS011;553;51.038;7.216;2024-03-08T10:54:36;15.73;;;9.10;;
1128;SDS011;553;51.038;7.216;2024-03-08T10:57:11;14.10;;;10.40;;
1128;SDS011;553;51.038;7.216;2024-03-08T10:59:39;19.23;;;8.93;;
1128;SDS011;553;51.038;7.216;2024-03-08T11:02:12;13.33;;;10.00;;
1128;SDS011;553;51.038;7.216;2024-03-08T11:04:43;18.20;;;11.10;;
1128;SDS011;553;51.038;7.216;2024-03-08T11:07:12;12.20;;;9.50;;
1128;SDS011;553;51.038;7.216;2024-03-08T11:09:44;17.07;;;10.83;;
1128;SDS011;553;51.038;7.216;2024-03-08T11:12:25;13.80;;;9.60;;
1128;SDS011;553;51.038;7.216;2024-03-08T11:15:11;15.80;;;10.30;;
1128;SDS011;553;51.038;7.216;2024-03-08T11:17:47;13.70;;;9.37;;
1128;SDS011;553;51.038;7.216;2024-03-08T11:20:15;15.33;;;10.70;;
1128;SDS011;553;51.038;7.216;2024-03-08T11:22:48;11.93;;;8.87;;
1128;SDS011;553;51.038;7.216;2024-03-08T11:25:39;13.80;;;9.27;;
1128;SDS011;553;51.038;7.216;2024-03-08T11:30:47;14.23;;;9.83;;
1128;SDS011;553;51.038;7.216;2024-03-08T11:33:30;14.03;;;8.40;;
1128;SDS011;553;51.038;7.216;2024-03-08T11:36:13;13.13;;;9.40;;
1128;SDS011;553;51.038;7.216;2024-03-08T11:38:48;12.37;;;8.33;;
1128;SDS011;553;51.038;7.216;2024-03-08T11:41:19;15.17;;;9.63;;
1128;SDS011;553;51.038;7.216;2024-03-08T11:43:48;11.83;;;7.80;;
1128;SDS011;553;51.038;7.216;2024-03-08T11:46:16;11.50;;;9.30;;
1128;SDS011;553;51.038;7.216;2024-03-08T11:48:44;11.73;;;8.93;;
1128;SDS011;553;51.038;7.216;2024-03-08T11:51:14;13.03;;;8.93;;
1128;SDS011;553;51.038;7.216;2024-03-08T11:53:44;11.10;;;8.57;;
1128;SDS011;553;51.038;7.216;2024-03-08T11:56:14;13.07;;;8.43;;
1128;SDS011;553;51.038;7.216;2024-03-08T11:58:42;12.17;;;8.40;;
1128;SDS011;553;51.038;7.216;2024-03-08T12:01:19;15.10;;;9.20;;
1128;SDS011;553;51.038;7.216;2024-03-08T12:03:52;15.40;;;10.10;;
1128;SDS011;553;51.038;7.216;2024-03-08T12:06:20;13.80;;;9.60;;
1128;SDS011;553;51.038;7.216;2024-03-08T12:08:47;12.50;;;9.20;;
1128;SDS011;553;51.038;7.216;2024-03-08T12:11:17;15.47;;;10.27;;
1128;SDS011;553;51.038;7.216;2024-03-08T12:13:53;11.50;;;8.83;;
1128;SDS011;553;51.038;7.216;2024-03-08T12:16:20;15.20;;;10.30;;
1128;SDS011;553;51.038;7.216;2024-03-08T12:18:48;13.40;;;9.00;;
1128;SDS011;553;51.038;7.216;2024-03-08T12:21:17;15.07;;;10.43;;
1128;SDS011;553;51.038;7.216;2024-03-08T12:23:46;13.57;;;8.90;;
1128;SDS011;553;51.038;7.216;2024-03-08T12:26:24;13.17;;;9.20;;
1128;SDS011;553;51.038;7.216;2024-03-08T12:28:52;12.27;;;9.10;;
1128;SDS011;553;51.038;7.216;2024-03-08T12:31:20;17.60;;;10.23;;
1128;SDS011;553;51.038;7.216;2024-03-08T12:33:51;12.10;;;8.43;;
1128;SDS011;553;51.038;7.216;2024-03-08T12:36:23;13.53;;;9.23;;
1128;SDS011;553;51.038;7.216;2024-03-08T12:38:49;14.43;;;9.20;;
1128;SDS011;553;51.038;7.216;2024-03-08T12:41:17;12.43;;;9.03;;
1128;SDS011;553;51.038;7.216;2024-03-08T12:43:45;13.53;;;8.73;;
1128;SDS011;553;51.038;7.216;2024-03-08T12:46:21;15.90;;;9.80;;
1128;SDS011;553;51.038;7.216;2024-03-08T12:48:48;15.47;;;8.67;;
1128;SDS011;553;51.038;7.216;2024-03-08T12:51:19;11.00;;;8.10;;
1128;SDS011;553;51.038;7.216;2024-03-08T12:53:46;13.17;;;8.63;;
1128;SDS011;553;51.038;7.216;2024-03-08T12:56:15;14.80;;;9.73;;
1128;SDS011;553;51.038;7.216;2024-03-08T12:58:55;11.93;;;7.93;;
1128;SDS011;553;51.038;7.216;2024-03-08T13:01:23;12.50;;;9.07;;
1128;SDS011;553;51.038;7.216;2024-03-08T13:03:50;17.33;;;9.20;;
1128;SDS011;553;51.038;7.216;2024-03-08T13:06:16;12.27;;;7.83;;
1128;SDS011;553;51.038;7.216;2024-03-08T13:08:43;11.27;;;8.90;;
1128;SDS011;553;51.038;7.216;2024-03-08T13:11:10;10.97;;;8.43;;
1128;SDS011;553;51.038;7.216;2024-03-08T13:13:38;15.10;;;9.30;;
1128;SDS011;553;51.038;7.216;2024-03-08T13:16:08;14.60;;;9.30;;
1128;SDS011;553;51.038;7.216;2024-03-08T13:18:35;13.30;;;9.70;;
1128;SDS011;553;51.038;7.216;2024-03-08T13:21:03;11.93;;;8.70;;
1128;SDS011;553;51.038;7.216;2024-03-08T13:23:34;15.00;;;10.20;;
1128;SDS011;553;51.038;7.216;2024-03-08T13:26:09;12.30;;;9.30;;
1128;SDS011;553;51.038;7.216;2024-03-08T13:28:47;13.37;;;9.63;;
1128;SDS011;553;51.038;7.216;2024-03-08T13:31:15;16.37;;;10.90;;
1128;SDS011;553;51.038;7.216;2024-03-08T13:33:42;13.10;;;9.70;;
1128;SDS011;553;51.038;7.216;2024-03-08T13:36:12;14.37;;;9.73;;
1128;SDS011;553;51.038;7.216;2024-03-08T13:38:46;13.57;;;9.13;;
1128;SDS011;553;51.038;7.216;2024-03-08T13:41:14;15.87;;;10.30;;
1128;SDS011;553;51.038;7.216;2024-03-08T13:43:45;15.20;;;10.30;;
1128;SDS011;553;51.038;7.216;2024-03-08T13:46:13;14.60;;;10.03;;
1128;SDS011;553;51.038;7.216;2024-03-08T13:48:40;16.90;;;11.50;;
1128;SDS011;553;51.038;7.216;2024-03-08T13:51:07;14.70;;;10.00;;
1128;SDS011;553;51.038;7.216;2024-03-08T13:53:39;16.03;;;10.77;;
1128;SDS011;553;51.038;7.216;2024-03-08T13:56:08;16.90;;;11.73;;
1128;SDS011;553;51.038;7.216;2024-03-08T13:58:37;15.57;;;10.80;;
1128;SDS011;553;51.038;7.216;2024-03-08T14:01:06;16.40;;;10.97;;
1128;SDS011;553;51.038;7.216;2024-03-08T16:55:10;19.70;;;10.07;;
1128;SDS011;553;51.038;7.216;2024-03-08T16:57:41;19.60;;;9.03;;
1128;SDS011;553;51.038;7.216;2024-03-08T17:00:18;12.70;;;9.67;;
1128;SDS011;553;51.038;7.216;2024-03-08T17:03:03;14.67;;;9.53;;
1128;SDS011;553;51.038;7.216;2024-03-08T17:05:37;13.80;;;9.93;;
1128;SDS011;553;51.038;7.216;2024-03-08T17:08:06;15.63;;;9.70;;
1128;SDS011;553;51.038;7.216;2024-03-08T17:10:33;19.97;;;10.20;;
1128;SDS011;553;51.038;7.216;2024-03-08T17:13:01;15.97;;;9.77;;
1128;SDS011;553;51.038;7.216;2024-03-08T17:15:34;15.73;;;10.00;;
1128;SDS011;553;51.038;7.216;2024-03-08T17:18:03;17.83;;;9.70;;
1128;SDS011;553;51.038;7.216;2024-03-08T17:20:36;16.83;;;9.40;;
1128;SDS011;553;51.038;7.216;2024-03-08T17:23:07;19.30;;;11.00;;
1128;SDS011;553;51.038;7.216;2024-03-08T17:25:35;19.07;;;10.00;;
1128;SDS011;553;51.038;7.216;2024-03-08T17:28:04;13.00;;;9.80;;
1128;SDS011;553;51.038;7.216;2024-03-08T17:30:33;16.00;;;9.77;;
1128;SDS011;553;51.038;7.216;2024-03-08T17:33:04;14.97;;;11.03;;
1128;SDS011;553;51.038;7.216;2024-03-08T17:35:37;14.20;;;10.00;;
1128;SDS011;553;51.038;7.216;2024-03-08T17:38:07;18.47;;;10.97;;
1128;SDS011;553;51.038;7.216;2024-03-08T17:40:38;14.33;;;9.53;;
1128;SDS011;553;51.038;7.216;2024-03-08T17:43:08;16.53;;;10.10;;
1128;SDS011;553;51.038;7.216;2024-03-08T17:45:41;18.97;;;11.30;;
1128;SDS011;553;51.038;7.216;2024-03-08T17:48:13;17.03;;;10.13;;
1128;SDS011;553;51.038;7.216;2024-03-08T17:50:44;17.93;;;10.90;;
1128;SDS011;553;51.038;7.216;2024-03-08T17:53:20;17.20;;;10.63;;
1128;SDS011;553;51.038;7.216;2024-03-08T17:55:47;15.50;;;10.10;;
1128;SDS011;553;51.038;7.216;2024-03-08T17:58:17;17.67;;;10.80;;
1128;SDS011;553;51.038;7.216;2024-03-08T18:00:44;18.00;;;11.33;;
1128;SDS011;553;51.038;7.216;2024-03-08T18:03:12;16.53;;;10.43;;
1128;SDS011;553;51.038;7.216;2024-03-08T18:05:41;17.37;;;11.13;;
1128;SDS011;553;51.038;7.216;2024-03-08T18:08:11;17.73;;;11.00;;
1128;SDS011;553;51.038;7.216;2024-03-08T18:10:39;18.23;;;11.73;;